Impros — D5BS7 — position and weather

sailwx.info

Track history (hours):
 
Tides and Currents Weather Stations Pressure Air Temp Water Temp Dewpoint Dewpoint Depression Visibility Wind Speed Wind Dir Waves Ship Positions

Impros

Last reported at 2014-Oct-17 03:20 UTC. Time now 2014-Oct-24 11:22 UTC.
Position N 22°10' E 114°08'.

Length 244 m; draft 7 m.

Type: Tanker. MMSI: 636015595.

Date/timePositionNaut miles runAvg speedWind from/ knotsBaromVisibWave heightAir tempDewpointWater temp
2014-Oct-17 03:20N 22°10' E 114°08'0 0.0
2014-Oct-16 20:32N 22°10' E 114°08'  
2014-Oct-07 17:05N 36°36' E 122°54'611.2
2014-Oct-07 16:33N 36°42' E 122°52'1211.9
2014-Oct-07 15:33N 36°54' E 122°51'1312.7
2014-Oct-07 14:33N 37°06' E 122°48'1312.8
2014-Oct-07 13:33N 37°19' E 122°48'1211.5
2014-Oct-07 12:33N 37°30' E 122°44'1110.9
2014-Oct-07 11:31N 37°39' E 122°36'1010.2
2014-Oct-07 10:33N 37°48' E 122°29'4 3.5
2014-Oct-07 09:32N 37°50' E 122°26'0 0.0
2014-Oct-07 08:32N 37°50' E 122°26'0 0.1
2014-Oct-07 07:17N 37°50' E 122°26'  
Track history (hours):
 
Tides and Currents Weather Stations Pressure Air Temp Water Temp Dewpoint Dewpoint Depression Visibility Wind Speed Wind Dir Waves Ship Positions

Impros

Last reported at 2014-Oct-17 03:20 UTC. Time now 2014-Oct-24 11:22 UTC.
Position N 22°10' E 114°08'.

Length 244 m; draft 7 m.

Type: Tanker. MMSI: 636015595.

Date/timePositionNaut miles runAvg speedWind from/ knotsBaromVisibWave heightAir tempDewpointWater temp
2014-Oct-17 03:20N 22°10' E 114°08'0 0.0
2014-Oct-16 20:32N 22°10' E 114°08'  
2014-Oct-07 17:05N 36°36' E 122°54'611.2
2014-Oct-07 16:33N 36°42' E 122°52'1211.9
2014-Oct-07 15:33N 36°54' E 122°51'1312.7
2014-Oct-07 14:33N 37°06' E 122°48'1312.8
2014-Oct-07 13:33N 37°19' E 122°48'1211.5
2014-Oct-07 12:33N 37°30' E 122°44'1110.9
2014-Oct-07 11:31N 37°39' E 122°36'1010.2
2014-Oct-07 10:33N 37°48' E 122°29'4 3.5
2014-Oct-07 09:32N 37°50' E 122°26'0 0.0
2014-Oct-07 08:32N 37°50' E 122°26'0 0.1
2014-Oct-07 07:17N 37°50' E 122°26'  

Dump ship's entire track history